RYR3LA LHBP-LCPH
Flight info
| Callsign | RYR3LA |
|---|---|
| Flight time | 2h 18m |
| Altitude | 35000 |
| Route | FAHAZ DCT KEROP DCT NISVA DCT RODIP UN131 KULAR UT39 TOMBI/N0463F330 M855 DASNI M32 TOBAL |
| Aircraft | B738/M-SDE2E3FGHIRWXY/LB1 |
Departure
| Time | 2026-05-04 14:55 |
|---|---|
| Airport | Budapest Liszt Ferenc International Airport (LHBP) |
Arrival
| Time | 2026-05-04 17:14 |
|---|---|
| Airport | Paphos International Airport (LCPH) |
| Time | Latitude | Longitude | Altitude | Speed | Heading |
|---|---|---|---|---|---|
| 2026-05-04 14:32 | 47.43334 | 19.25886 | 456 ft | 0 kts | 222° |
| 2026-05-04 14:46 | 47.43335 | 19.25887 | 484 ft | 2 kts | 222° |
| 2026-05-04 14:46 | 47.43353 | 19.25912 | 456 ft | 4 kts | 223° |
| 2026-05-04 14:46 | 47.43373 | 19.25938 | 454 ft | 4 kts | 212° |
| 2026-05-04 14:47 | 47.43392 | 19.25950 | 453 ft | 3 kts | 194° |
| 2026-05-04 14:47 | 47.43415 | 19.25966 | 452 ft | 4 kts | 223° |
| 2026-05-04 14:47 | 47.43430 | 19.25987 | 454 ft | 0 kts | 222° |
| 2026-05-04 14:50 | 47.43427 | 19.25983 | 456 ft | 3 kts | 225° |
| 2026-05-04 14:51 | 47.43424 | 19.25936 | 455 ft | 5 kts | 295° |
| 2026-05-04 14:51 | 47.43452 | 19.25884 | 456 ft | 8 kts | 312° |
| 2026-05-04 14:51 | 47.43487 | 19.25810 | 456 ft | 9 kts | 298° |
| 2026-05-04 14:51 | 47.43531 | 19.25732 | 456 ft | 13 kts | 311° |
| 2026-05-04 14:52 | 47.43615 | 19.25747 | 455 ft | 14 kts | 40° |
| 2026-05-04 14:52 | 47.43687 | 19.25840 | 456 ft | 14 kts | 43° |
| 2026-05-04 14:52 | 47.43755 | 19.25935 | 456 ft | 13 kts | 43° |
| 2026-05-04 14:52 | 47.43823 | 19.26029 | 457 ft | 14 kts | 42° |
| 2026-05-04 14:53 | 47.43905 | 19.26139 | 457 ft | 18 kts | 41° |
| 2026-05-04 14:53 | 47.44003 | 19.26269 | 459 ft | 19 kts | 44° |
| 2026-05-04 14:53 | 47.44068 | 19.26433 | 469 ft | 19 kts | 84° |
| 2026-05-04 14:53 | 47.44021 | 19.26601 | 468 ft | 19 kts | 132° |
| 2026-05-04 14:54 | 47.43896 | 19.26804 | 468 ft | 44 kts | 133° |
| 2026-05-04 14:54 | 47.43570 | 19.27331 | 469 ft | 96 kts | 132° |
| 2026-05-04 14:54 | 47.43004 | 19.28224 | 457 ft | 139 kts | 135° |
| 2026-05-04 14:54 | 47.42298 | 19.29308 | 701 ft | 148 kts | 134° |
| 2026-05-04 14:55 | 47.41684 | 19.30534 | 1021 ft | 153 kts | 124° |
| 2026-05-04 14:55 | 47.41176 | 19.31943 | 1350 ft | 157 kts | 123° |
| 2026-05-04 14:55 | 47.40654 | 19.33347 | 1796 ft | 154 kts | 121° |
| 2026-05-04 14:55 | 47.40171 | 19.34786 | 2176 ft | 163 kts | 122° |
| 2026-05-04 14:56 | 47.39575 | 19.36366 | 2323 ft | 189 kts | 125° |
| 2026-05-04 14:56 | 47.38888 | 19.38150 | 2557 ft | 212 kts | 122° |
| 2026-05-04 14:56 | 47.37915 | 19.39865 | 2684 ft | 227 kts | 152° |
| 2026-05-04 14:56 | 47.36342 | 19.40407 | 2842 ft | 245 kts | 188° |
| 2026-05-04 14:57 | 47.34719 | 19.39616 | 3445 ft | 247 kts | 197° |
| 2026-05-04 14:57 | 47.32996 | 19.39503 | 4029 ft | 255 kts | 169° |
| 2026-05-04 14:57 | 47.31256 | 19.40128 | 4612 ft | 259 kts | 167° |
| 2026-05-04 14:57 | 47.29514 | 19.40770 | 5372 ft | 258 kts | 167° |
| 2026-05-04 14:58 | 47.27739 | 19.41387 | 5917 ft | 266 kts | 169° |
| 2026-05-04 14:58 | 47.25937 | 19.41973 | 6500 ft | 270 kts | 169° |
| 2026-05-04 14:58 | 47.24103 | 19.42535 | 7211 ft | 270 kts | 170° |
| 2026-05-04 14:58 | 47.22248 | 19.43081 | 7821 ft | 273 kts | 170° |
| 2026-05-04 14:59 | 47.20385 | 19.43610 | 8532 ft | 274 kts | 170° |
| 2026-05-04 14:59 | 47.18494 | 19.44135 | 9147 ft | 279 kts | 170° |
| 2026-05-04 14:59 | 47.14670 | 19.45166 | 10449 ft | 288 kts | 170° |
| 2026-05-04 15:00 | 47.12631 | 19.45705 | 10648 ft | 308 kts | 170° |
| 2026-05-04 15:00 | 47.10448 | 19.46278 | 10819 ft | 328 kts | 170° |
| 2026-05-04 15:00 | 47.08138 | 19.46881 | 11118 ft | 342 kts | 169° |
| 2026-05-04 15:01 | 47.03364 | 19.48120 | 12288 ft | 352 kts | 170° |
| 2026-05-04 15:01 | 47.00941 | 19.48747 | 12919 ft | 356 kts | 169° |
| 2026-05-04 15:01 | 46.98488 | 19.49380 | 13552 ft | 360 kts | 169° |
| 2026-05-04 15:01 | 46.96001 | 19.50021 | 14146 ft | 365 kts | 169° |
| 2026-05-04 15:02 | 46.93486 | 19.50668 | 14743 ft | 369 kts | 169° |
| 2026-05-04 15:02 | 46.90945 | 19.51321 | 15361 ft | 373 kts | 169° |
| 2026-05-04 15:02 | 46.88376 | 19.51981 | 15967 ft | 376 kts | 169° |
| 2026-05-04 15:02 | 46.85781 | 19.52646 | 16568 ft | 380 kts | 169° |
| 2026-05-04 15:03 | 46.83193 | 19.53310 | 17141 ft | 384 kts | 169° |
| 2026-05-04 15:03 | 46.80544 | 19.53988 | 17725 ft | 389 kts | 169° |
| 2026-05-04 15:03 | 46.77870 | 19.54672 | 18319 ft | 392 kts | 169° |
| 2026-05-04 15:03 | 46.75169 | 19.55361 | 18831 ft | 396 kts | 169° |
| 2026-05-04 15:04 | 46.72437 | 19.56059 | 19325 ft | 400 kts | 169° |
| 2026-05-04 15:04 | 46.69678 | 19.56762 | 19819 ft | 404 kts | 169° |
| 2026-05-04 15:04 | 46.66896 | 19.57471 | 20294 ft | 408 kts | 169° |
| 2026-05-04 15:04 | 46.64082 | 19.58186 | 20785 ft | 412 kts | 169° |
| 2026-05-04 15:05 | 46.61237 | 19.58909 | 21226 ft | 416 kts | 169° |
| 2026-05-04 15:05 | 46.58385 | 19.59633 | 21771 ft | 418 kts | 169° |
| 2026-05-04 15:05 | 46.55494 | 19.60366 | 22207 ft | 422 kts | 169° |
| 2026-05-04 15:05 | 46.52626 | 19.61093 | 22659 ft | 426 kts | 169° |
| 2026-05-04 15:06 | 46.49701 | 19.61833 | 23203 ft | 427 kts | 170° |
| 2026-05-04 15:06 | 46.46766 | 19.62574 | 23649 ft | 431 kts | 170° |
| 2026-05-04 15:06 | 46.43796 | 19.63324 | 23977 ft | 435 kts | 170° |
| 2026-05-04 15:07 | 46.37801 | 19.64835 | 24791 ft | 439 kts | 170° |
| 2026-05-04 15:07 | 46.34783 | 19.65594 | 25166 ft | 441 kts | 170° |
| 2026-05-04 15:07 | 46.31746 | 19.66357 | 25522 ft | 444 kts | 170° |
| 2026-05-04 15:07 | 46.28696 | 19.67123 | 25871 ft | 447 kts | 170° |
| 2026-05-04 15:08 | 46.25623 | 19.67894 | 26210 ft | 449 kts | 170° |
| 2026-05-04 15:08 | 46.22538 | 19.68668 | 26545 ft | 452 kts | 169° |
| 2026-05-04 15:08 | 46.19485 | 19.69819 | 26851 ft | 455 kts | 159° |
| 2026-05-04 15:08 | 46.16580 | 19.71646 | 27181 ft | 456 kts | 151° |
| 2026-05-04 15:09 | 46.13903 | 19.74096 | 27491 ft | 458 kts | 143° |
| 2026-05-04 15:09 | 46.11313 | 19.76781 | 27827 ft | 460 kts | 142° |
| 2026-05-04 15:09 | 46.08724 | 19.79514 | 28128 ft | 462 kts | 142° |
| 2026-05-04 15:10 | 46.03502 | 19.85010 | 28725 ft | 467 kts | 142° |
| 2026-05-04 15:10 | 46.00861 | 19.87758 | 29029 ft | 469 kts | 143° |
| 2026-05-04 15:10 | 45.95530 | 19.93250 | 29576 ft | 474 kts | 143° |
| 2026-05-04 15:11 | 45.92836 | 19.96009 | 29854 ft | 476 kts | 143° |
| 2026-05-04 15:11 | 45.90133 | 19.98770 | 30111 ft | 478 kts | 143° |
| 2026-05-04 15:11 | 45.87450 | 20.01508 | 30325 ft | 480 kts | 143° |
| 2026-05-04 15:11 | 45.84717 | 20.04293 | 30546 ft | 482 kts | 143° |
| 2026-05-04 15:12 | 45.81973 | 20.07087 | 30756 ft | 484 kts | 143° |
| 2026-05-04 15:12 | 45.79222 | 20.09884 | 30962 ft | 485 kts | 143° |
| 2026-05-04 15:12 | 45.76470 | 20.12680 | 31205 ft | 486 kts | 143° |
| 2026-05-04 15:12 | 45.73714 | 20.15477 | 31502 ft | 485 kts | 143° |
| 2026-05-04 15:13 | 45.70961 | 20.18267 | 31802 ft | 485 kts | 143° |
| 2026-05-04 15:13 | 45.68208 | 20.21053 | 32062 ft | 485 kts | 143° |
| 2026-05-04 15:13 | 45.65455 | 20.23837 | 32313 ft | 485 kts | 143° |
| 2026-05-04 15:13 | 45.62694 | 20.26624 | 32581 ft | 485 kts | 143° |
| 2026-05-04 15:14 | 45.59936 | 20.29406 | 32851 ft | 485 kts | 143° |
| 2026-05-04 15:14 | 45.57184 | 20.32179 | 33103 ft | 485 kts | 143° |
| 2026-05-04 15:14 | 45.54461 | 20.34918 | 33352 ft | 485 kts | 143° |
| 2026-05-04 15:14 | 45.51706 | 20.37687 | 33619 ft | 484 kts | 143° |
| 2026-05-04 15:15 | 45.48951 | 20.40452 | 33893 ft | 484 kts | 143° |
| 2026-05-04 15:15 | 45.46202 | 20.43208 | 34145 ft | 483 kts | 143° |
| 2026-05-04 15:15 | 45.43451 | 20.45961 | 34376 ft | 483 kts | 143° |
| 2026-05-04 15:16 | 45.37970 | 20.51439 | 34878 ft | 480 kts | 143° |
| 2026-05-04 15:16 | 45.35239 | 20.54163 | 35087 ft | 479 kts | 143° |
| 2026-05-04 15:17 | 45.27009 | 20.62355 | 35088 ft | 480 kts | 143° |
| 2026-05-04 15:17 | 45.18821 | 20.70473 | 35090 ft | 477 kts | 143° |
| 2026-05-04 15:18 | 45.13390 | 20.75843 | 35086 ft | 476 kts | 143° |
| 2026-05-04 15:19 | 45.05242 | 20.83876 | 35091 ft | 476 kts | 143° |
| 2026-05-04 15:19 | 44.97053 | 20.91921 | 35090 ft | 479 kts | 143° |
| 2026-05-04 15:20 | 44.91599 | 20.97264 | 35094 ft | 481 kts | 143° |
| 2026-05-04 15:20 | 44.86079 | 21.02656 | 35090 ft | 483 kts | 143° |
| 2026-05-04 15:21 | 44.80538 | 21.08058 | 35092 ft | 485 kts | 143° |
| 2026-05-04 15:22 | 44.72197 | 21.16164 | 35094 ft | 486 kts | 143° |
| 2026-05-04 15:22 | 44.63847 | 21.24250 | 35089 ft | 486 kts | 143° |
| 2026-05-04 15:23 | 44.58281 | 21.29624 | 35092 ft | 484 kts | 143° |
| 2026-05-04 15:23 | 44.52768 | 21.34934 | 35092 ft | 483 kts | 143° |
| 2026-05-04 15:24 | 44.42603 | 21.44692 | 35093 ft | 481 kts | 143° |
| 2026-05-04 15:25 | 44.36188 | 21.50830 | 35095 ft | 480 kts | 143° |
| 2026-05-04 15:26 | 44.27924 | 21.58712 | 35097 ft | 479 kts | 143° |
| 2026-05-04 15:26 | 44.20573 | 21.65700 | 35097 ft | 478 kts | 143° |
| 2026-05-04 15:27 | 44.12335 | 21.73506 | 35096 ft | 477 kts | 143° |
| 2026-05-04 15:28 | 44.04138 | 21.81247 | 35097 ft | 477 kts | 143° |
| 2026-05-04 15:29 | 43.95904 | 21.88996 | 35098 ft | 476 kts | 143° |
| 2026-05-04 15:30 | 43.76679 | 22.06987 | 35087 ft | 476 kts | 143° |
| 2026-05-04 15:31 | 43.68437 | 22.14655 | 35086 ft | 475 kts | 144° |
| 2026-05-04 15:32 | 43.54739 | 22.27345 | 35086 ft | 474 kts | 144° |
| 2026-05-04 15:34 | 43.41085 | 22.39923 | 35090 ft | 472 kts | 144° |
| 2026-05-04 15:34 | 43.32920 | 22.47412 | 35093 ft | 471 kts | 144° |
| 2026-05-04 15:35 | 43.24740 | 22.54891 | 35097 ft | 469 kts | 145° |
| 2026-05-04 15:36 | 43.16626 | 22.62284 | 35098 ft | 467 kts | 145° |
| 2026-05-04 15:36 | 43.11199 | 22.67216 | 35095 ft | 465 kts | 145° |
| 2026-05-04 15:37 | 43.05835 | 22.72080 | 35097 ft | 464 kts | 145° |
| 2026-05-04 15:37 | 43.00445 | 22.76959 | 35095 ft | 463 kts | 145° |
| 2026-05-04 15:38 | 42.95299 | 22.82134 | 35090 ft | 460 kts | 136° |
| 2026-05-04 15:38 | 42.90625 | 22.88088 | 35098 ft | 459 kts | 135° |
| 2026-05-04 15:39 | 42.85995 | 22.94057 | 35106 ft | 458 kts | 135° |
| 2026-05-04 15:40 | 42.79015 | 23.02919 | 35093 ft | 456 kts | 136° |
| 2026-05-04 15:40 | 42.74361 | 23.08773 | 35104 ft | 455 kts | 136° |
| 2026-05-04 15:41 | 42.69704 | 23.14614 | 35096 ft | 454 kts | 136° |
| 2026-05-04 15:41 | 42.65079 | 23.20405 | 35111 ft | 454 kts | 136° |
| 2026-05-04 15:42 | 42.60427 | 23.26219 | 35097 ft | 454 kts | 136° |
| 2026-05-04 15:42 | 42.55781 | 23.32014 | 35103 ft | 454 kts | 136° |
| 2026-05-04 15:43 | 42.51125 | 23.37808 | 35103 ft | 454 kts | 137° |
| 2026-05-04 15:43 | 42.46459 | 23.43603 | 35108 ft | 455 kts | 137° |
| 2026-05-04 15:44 | 42.41804 | 23.49370 | 35098 ft | 456 kts | 137° |
| 2026-05-04 15:44 | 42.37113 | 23.55169 | 35099 ft | 457 kts | 137° |
| 2026-05-04 15:45 | 42.32410 | 23.60974 | 35110 ft | 458 kts | 137° |
| 2026-05-04 15:45 | 42.27692 | 23.66784 | 35100 ft | 458 kts | 137° |
| 2026-05-04 15:46 | 42.22999 | 23.72551 | 35095 ft | 459 kts | 137° |
| 2026-05-04 15:46 | 42.18267 | 23.78353 | 35104 ft | 459 kts | 137° |
| 2026-05-04 15:47 | 42.13531 | 23.84146 | 35095 ft | 459 kts | 137° |
| 2026-05-04 15:47 | 42.08811 | 23.89910 | 35090 ft | 458 kts | 137° |
| 2026-05-04 15:48 | 42.04084 | 23.95669 | 35087 ft | 457 kts | 137° |
| 2026-05-04 15:48 | 41.97010 | 24.04266 | 35086 ft | 457 kts | 137° |
| 2026-05-04 15:49 | 41.92292 | 24.09984 | 35078 ft | 456 kts | 136° |
| 2026-05-04 15:49 | 41.87583 | 24.15681 | 35080 ft | 456 kts | 137° |
| 2026-05-04 15:50 | 41.82869 | 24.21371 | 35077 ft | 456 kts | 136° |
| 2026-05-04 15:50 | 41.78151 | 24.27054 | 35073 ft | 456 kts | 136° |
| 2026-05-04 15:51 | 41.73455 | 24.32697 | 35081 ft | 457 kts | 136° |
| 2026-05-04 15:51 | 41.68711 | 24.38390 | 35070 ft | 458 kts | 136° |
| 2026-05-04 15:52 | 41.63955 | 24.44083 | 35072 ft | 459 kts | 137° |
| 2026-05-04 15:52 | 41.59195 | 24.49770 | 35065 ft | 459 kts | 136° |
| 2026-05-04 15:53 | 41.54427 | 24.55455 | 35058 ft | 460 kts | 136° |
| 2026-05-04 15:53 | 41.49656 | 24.61131 | 35052 ft | 459 kts | 136° |
| 2026-05-04 15:54 | 41.44883 | 24.66800 | 35046 ft | 459 kts | 136° |
| 2026-05-04 15:54 | 41.40110 | 24.72455 | 35046 ft | 459 kts | 136° |
| 2026-05-04 15:55 | 41.35340 | 24.78107 | 35040 ft | 458 kts | 136° |
| 2026-05-04 15:55 | 41.30578 | 24.83739 | 35041 ft | 458 kts | 136° |
| 2026-05-04 15:56 | 41.25832 | 24.89367 | 35041 ft | 456 kts | 135° |
| 2026-05-04 15:56 | 41.21328 | 24.95232 | 35039 ft | 455 kts | 133° |
| 2026-05-04 15:57 | 41.16890 | 25.01217 | 35039 ft | 454 kts | 133° |
| 2026-05-04 15:57 | 41.12447 | 25.07146 | 35032 ft | 452 kts | 133° |
| 2026-05-04 15:58 | 41.07995 | 25.13023 | 35037 ft | 451 kts | 133° |
| 2026-05-04 15:58 | 41.03553 | 25.18856 | 35036 ft | 449 kts | 133° |
| 2026-05-04 15:59 | 40.99114 | 25.24672 | 35039 ft | 449 kts | 133° |
| 2026-05-04 15:59 | 40.94674 | 25.30482 | 35040 ft | 448 kts | 133° |
| 2026-05-04 16:00 | 40.90235 | 25.36278 | 35037 ft | 448 kts | 133° |
| 2026-05-04 16:00 | 40.85789 | 25.42072 | 35039 ft | 449 kts | 133° |
| 2026-05-04 16:01 | 40.81335 | 25.47866 | 35041 ft | 450 kts | 133° |
| 2026-05-04 16:01 | 40.76896 | 25.53628 | 35044 ft | 451 kts | 133° |
| 2026-05-04 16:02 | 40.72407 | 25.59443 | 35048 ft | 453 kts | 133° |
| 2026-05-04 16:03 | 40.65649 | 25.68176 | 35037 ft | 455 kts | 133° |
| 2026-05-04 16:03 | 40.61119 | 25.74015 | 35048 ft | 456 kts | 133° |
| 2026-05-04 16:04 | 40.56581 | 25.79852 | 35059 ft | 457 kts | 133° |
| 2026-05-04 16:04 | 40.49762 | 25.88629 | 35043 ft | 457 kts | 131° |
| 2026-05-04 16:05 | 40.45511 | 25.94824 | 35051 ft | 456 kts | 128° |
| 2026-05-04 16:06 | 40.39289 | 26.04288 | 35050 ft | 457 kts | 128° |
| 2026-05-04 16:07 | 40.30896 | 26.16817 | 35066 ft | 457 kts | 128° |
| 2026-05-04 16:08 | 40.22494 | 26.29270 | 35080 ft | 457 kts | 128° |
| 2026-05-04 16:09 | 40.11883 | 26.44795 | 35080 ft | 459 kts | 131° |
| 2026-05-04 16:10 | 40.02701 | 26.56471 | 35072 ft | 461 kts | 133° |
| 2026-05-04 16:11 | 39.94281 | 26.67190 | 35068 ft | 462 kts | 132° |
| 2026-05-04 16:12 | 39.80463 | 26.84783 | 35057 ft | 464 kts | 133° |
| 2026-05-04 16:13 | 39.71145 | 26.96420 | 35056 ft | 465 kts | 134° |
| 2026-05-04 16:14 | 39.61714 | 27.07957 | 35053 ft | 466 kts | 134° |
| 2026-05-04 16:16 | 39.49969 | 27.22337 | 35058 ft | 466 kts | 132° |
| 2026-05-04 16:17 | 39.39662 | 27.38407 | 35061 ft | 465 kts | 126° |
| 2026-05-04 16:18 | 39.31426 | 27.51325 | 35060 ft | 466 kts | 127° |
| 2026-05-04 16:19 | 39.21053 | 27.67439 | 35058 ft | 467 kts | 127° |
| 2026-05-04 16:20 | 39.10634 | 27.83556 | 35061 ft | 469 kts | 127° |
| 2026-05-04 16:22 | 39.00147 | 27.99668 | 35063 ft | 471 kts | 128° |
| 2026-05-04 16:23 | 38.87499 | 28.18985 | 35060 ft | 473 kts | 128° |
| 2026-05-04 16:25 | 38.74741 | 28.38357 | 35062 ft | 474 kts | 128° |
| 2026-05-04 16:26 | 38.59812 | 28.60876 | 35051 ft | 475 kts | 129° |
| 2026-05-04 16:27 | 38.54898 | 28.66493 | 35053 ft | 476 kts | 143° |
| 2026-05-04 16:28 | 38.46724 | 28.73669 | 35052 ft | 475 kts | 144° |
| 2026-05-04 16:29 | 38.27777 | 28.90482 | 35038 ft | 473 kts | 144° |
| 2026-05-04 16:31 | 38.14251 | 29.02484 | 35045 ft | 474 kts | 145° |
| 2026-05-04 16:32 | 37.97948 | 29.16872 | 35037 ft | 477 kts | 145° |
| 2026-05-04 16:33 | 37.87063 | 29.26435 | 35036 ft | 478 kts | 146° |
| 2026-05-04 16:34 | 37.78858 | 29.33620 | 35038 ft | 479 kts | 146° |
| 2026-05-04 16:35 | 37.62373 | 29.47996 | 35021 ft | 480 kts | 146° |
| 2026-05-04 16:36 | 37.54130 | 29.55156 | 35020 ft | 477 kts | 146° |
| 2026-05-04 16:37 | 37.45964 | 29.62230 | 35028 ft | 473 kts | 147° |
| 2026-05-04 16:38 | 37.35148 | 29.71569 | 35022 ft | 470 kts | 147° |
| 2026-05-04 16:39 | 37.21653 | 29.83219 | 35016 ft | 472 kts | 147° |
| 2026-05-04 16:40 | 37.10791 | 29.92565 | 35005 ft | 477 kts | 147° |
| 2026-05-04 16:41 | 36.97019 | 30.04306 | 34983 ft | 480 kts | 147° |
| 2026-05-04 16:43 | 36.83196 | 30.16045 | 34973 ft | 480 kts | 148° |
| 2026-05-04 16:43 | 36.74911 | 30.23073 | 34944 ft | 479 kts | 148° |
| 2026-05-04 16:45 | 36.58447 | 30.36987 | 34920 ft | 476 kts | 148° |
| 2026-05-04 16:46 | 36.44748 | 30.48507 | 34901 ft | 474 kts | 149° |
| 2026-05-04 16:47 | 36.33815 | 30.57665 | 34880 ft | 473 kts | 149° |
| 2026-05-04 16:48 | 36.22923 | 30.66758 | 34874 ft | 473 kts | 150° |
| 2026-05-04 16:49 | 36.11969 | 30.75872 | 34867 ft | 474 kts | 150° |
| 2026-05-04 16:50 | 36.00308 | 30.82643 | 34865 ft | 457 kts | 176° |
| 2026-05-04 16:51 | 35.90883 | 30.83268 | 34862 ft | 452 kts | 182° |
| 2026-05-04 16:52 | 35.78319 | 30.83981 | 34859 ft | 451 kts | 182° |
| 2026-05-04 16:53 | 35.68957 | 30.84559 | 34859 ft | 450 kts | 182° |
| 2026-05-04 16:53 | 35.60102 | 30.88467 | 34860 ft | 479 kts | 142° |
| 2026-05-04 16:54 | 35.57941 | 30.91619 | 34883 ft | 488 kts | 129° |
| 2026-05-04 16:55 | 35.46860 | 31.12698 | 34862 ft | 490 kts | 129° |
| 2026-05-04 16:56 | 35.43062 | 31.19753 | 33894 ft | 502 kts | 130° |
| 2026-05-04 16:56 | 35.37255 | 31.30491 | 31036 ft | 503 kts | 129° |
| 2026-05-04 16:57 | 35.35984 | 31.32843 | 30369 ft | 504 kts | 130° |
| 2026-05-04 16:57 | 35.31477 | 31.41167 | 27540 ft | 502 kts | 130° |
| 2026-05-04 16:58 | 35.25861 | 31.51538 | 25086 ft | 475 kts | 132° |
| 2026-05-04 16:58 | 35.24653 | 31.53761 | 24545 ft | 470 kts | 132° |
| 2026-05-04 16:59 | 35.21071 | 31.60335 | 22804 ft | 458 kts | 133° |
| 2026-05-04 17:00 | 35.14229 | 31.72849 | 19594 ft | 429 kts | 131° |
| 2026-05-04 17:00 | 35.09338 | 31.81763 | 17203 ft | 414 kts | 131° |
| 2026-05-04 17:01 | 35.06181 | 31.87510 | 15691 ft | 402 kts | 130° |
| 2026-05-04 17:01 | 35.03096 | 31.93115 | 14235 ft | 392 kts | 130° |
| 2026-05-04 17:02 | 35.00086 | 31.98574 | 12739 ft | 383 kts | 129° |
| 2026-05-04 17:02 | 34.97146 | 32.03901 | 11290 ft | 374 kts | 129° |
| 2026-05-04 17:03 | 34.95702 | 32.06515 | 10629 ft | 368 kts | 126° |
| 2026-05-04 17:03 | 34.94308 | 32.09041 | 10497 ft | 350 kts | 129° |
| 2026-05-04 17:03 | 34.91674 | 32.13805 | 10175 ft | 329 kts | 130° |
| 2026-05-04 17:04 | 34.89224 | 32.18226 | 9903 ft | 302 kts | 130° |
| 2026-05-04 17:04 | 34.86988 | 32.22408 | 9293 ft | 293 kts | 128° |
| 2026-05-04 17:05 | 34.84659 | 32.26499 | 8414 ft | 293 kts | 132° |
| 2026-05-04 17:05 | 34.82277 | 32.30499 | 7552 ft | 291 kts | 132° |
| 2026-05-04 17:06 | 34.79883 | 32.34460 | 6711 ft | 290 kts | 132° |
| 2026-05-04 17:06 | 34.78677 | 32.36426 | 6292 ft | 289 kts | 132° |
| 2026-05-04 17:07 | 34.76112 | 32.39642 | 5460 ft | 278 kts | 151° |
| 2026-05-04 17:07 | 34.75217 | 32.40382 | 5230 ft | 277 kts | 152° |
| 2026-05-04 17:07 | 34.73061 | 32.42098 | 4653 ft | 278 kts | 153° |
| 2026-05-04 17:07 | 34.71428 | 32.43380 | 4218 ft | 281 kts | 153° |
| 2026-05-04 17:08 | 34.69784 | 32.44655 | 4007 ft | 276 kts | 153° |
| 2026-05-04 17:08 | 34.66287 | 32.47393 | 3983 ft | 269 kts | 146° |
| 2026-05-04 17:08 | 34.65063 | 32.49115 | 3998 ft | 268 kts | 128° |
| 2026-05-04 17:09 | 34.64076 | 32.50984 | 3972 ft | 258 kts | 119° |
| 2026-05-04 17:09 | 34.63666 | 32.53040 | 3986 ft | 246 kts | 92° |
| 2026-05-04 17:09 | 34.63654 | 32.55069 | 3931 ft | 236 kts | 90° |
| 2026-05-04 17:10 | 34.63997 | 32.58935 | 3610 ft | 226 kts | 69° |
| 2026-05-04 17:10 | 34.67212 | 32.60249 | 2585 ft | 161 kts | 314° |
| 2026-05-04 17:11 | 34.67779 | 32.59687 | 2326 ft | 157 kts | 311° |
| 2026-05-04 17:11 | 34.68540 | 32.58805 | 2045 ft | 140 kts | 303° |
| 2026-05-04 17:11 | 34.69298 | 32.56782 | 1325 ft | 126 kts | 285° |
| 2026-05-04 17:12 | 34.69597 | 32.55793 | 1039 ft | 124 kts | 287° |
| 2026-05-04 17:12 | 34.70149 | 32.53802 | 812 ft | 126 kts | 293° |
| 2026-05-04 17:13 | 34.71111 | 32.50758 | 263 ft | 131 kts | 294° |
| 2026-05-04 17:14 | 34.71812 | 32.48464 | 44 ft | 21 kts | 270° |
| 2026-05-04 17:14 | 34.71715 | 32.48381 | 43 ft | 14 kts | 191° |
| 2026-05-04 17:14 | 34.71618 | 32.48560 | 43 ft | 13 kts | 110° |
| 2026-05-04 17:15 | 34.71588 | 32.48661 | 43 ft | 13 kts | 110° |
| 2026-05-04 17:15 | 34.71498 | 32.48876 | 42 ft | 12 kts | 174° |
| 2026-05-04 17:16 | 34.71427 | 32.48732 | 41 ft | 5 kts | 229° |
| 2026-05-04 17:16 | 34.71363 | 32.48755 | 42 ft | 0 kts | 154° |